createdAt,value
2022-09-15T00:01:44.308Z,1.27
2022-09-15T00:04:10.988Z,1.30
2022-09-15T00:06:37.701Z,1.30
2022-09-15T00:09:04.493Z,1.35
2022-09-15T00:11:32.302Z,1.40
2022-09-15T00:14:00.227Z,1.30
2022-09-15T00:16:27.795Z,1.30
2022-09-15T00:18:54.427Z,1.10
2022-09-15T00:21:22.693Z,1.10
2022-09-15T00:23:49.740Z,1.20
2022-09-15T00:26:19.499Z,1.25
2022-09-15T00:28:47.159Z,1.20
2022-09-15T00:31:14.969Z,1.20
2022-09-15T00:33:41.909Z,1.20
2022-09-15T00:36:09.747Z,0.95
2022-09-15T00:38:36.791Z,1.00
2022-09-15T00:41:03.868Z,1.02
2022-09-15T00:43:42.749Z,1.10
2022-09-15T00:46:09.962Z,1.13
2022-09-15T00:48:38.246Z,1.10
2022-09-15T00:51:06.074Z,1.13
2022-09-15T00:53:33.624Z,0.90
2022-09-15T00:56:01.622Z,1.10
2022-09-15T00:58:28.219Z,1.23
2022-09-15T01:00:56.663Z,0.93
2022-09-15T01:03:24.213Z,1.00
2022-09-15T01:05:53.794Z,1.10
2022-09-15T01:08:24.968Z,1.05
2022-09-15T01:10:52.088Z,0.82
2022-09-15T01:13:21.003Z,0.95
2022-09-15T01:16:06.383Z,0.80
2022-09-15T01:18:48.311Z,1.15
2022-09-15T01:21:19.104Z,1.00
2022-09-15T01:23:48.847Z,0.82
2022-09-15T01:26:51.772Z,1.20
2022-09-15T01:29:36.875Z,1.08
2022-09-15T01:32:26.689Z,0.98
2022-09-15T01:35:17.227Z,1.00
2022-09-15T01:37:46.373Z,0.82
2022-09-15T01:40:15.082Z,0.93
2022-09-15T01:42:43.534Z,0.93
2022-09-15T01:45:14.113Z,0.70
2022-09-15T01:47:42.086Z,0.80
2022-09-15T01:50:10.545Z,1.08
2022-09-15T01:52:40.450Z,0.70
2022-09-15T01:55:11.302Z,0.75
2022-09-15T01:57:37.899Z,0.73
2022-09-15T02:00:05.518Z,0.90
2022-09-15T02:02:42.640Z,0.90
2022-09-15T02:05:32.095Z,0.85
2022-09-15T02:08:08.791Z,0.80
2022-09-15T02:10:44.071Z,0.80
2022-09-15T02:13:17.132Z,1.10
2022-09-15T02:15:52.666Z,1.00
2022-09-15T02:18:24.752Z,1.17
2022-09-15T02:20:57.717Z,0.80
2022-09-15T02:23:34.969Z,0.80
2022-09-15T02:26:05.084Z,0.90
2022-09-15T02:28:33.671Z,0.80
2022-09-15T02:31:00.823Z,1.02
2022-09-15T02:33:29.868Z,0.77
2022-09-15T02:35:56.494Z,0.70
2022-09-15T02:38:23.682Z,1.00
2022-09-15T02:40:50.714Z,1.05
2022-09-15T02:43:18.066Z,1.15
2022-09-15T02:45:44.836Z,0.88
2022-09-15T02:48:11.792Z,0.80
2022-09-15T02:50:38.960Z,1.23
2022-09-15T02:53:05.671Z,0.65
2022-09-15T02:55:32.477Z,0.80
2022-09-15T02:57:59.424Z,0.80
2022-09-15T03:00:26.964Z,0.70
2022-09-15T03:02:54.466Z,0.60
2022-09-15T03:05:22.745Z,0.60
2022-09-15T03:07:49.760Z,0.70
2022-09-15T03:10:16.447Z,0.75
2022-09-15T03:12:47.911Z,0.88
2022-09-15T03:15:15.248Z,0.70
2022-09-15T03:17:42.725Z,0.50
2022-09-15T03:20:10.358Z,0.88
2022-09-15T03:22:36.947Z,0.73
2022-09-15T03:25:05.725Z,0.70
2022-09-15T03:27:32.518Z,0.63
2022-09-15T03:29:59.258Z,0.60
2022-09-15T03:32:29.256Z,0.90
2022-09-15T03:34:58.453Z,1.00
2022-09-15T03:37:25.404Z,0.70
2022-09-15T03:39:52.134Z,1.23
2022-09-15T03:42:19.678Z,0.80
2022-09-15T03:44:46.330Z,0.70
2022-09-15T03:47:13.161Z,0.60
2022-09-15T03:49:39.898Z,0.50
2022-09-15T03:52:06.638Z,0.95
2022-09-15T03:54:33.284Z,0.70
2022-09-15T03:56:59.884Z,0.57
2022-09-15T03:59:26.516Z,0.80
2022-09-15T04:01:53.407Z,0.60
2022-09-15T04:04:20.169Z,0.70
2022-09-15T04:06:47.161Z,1.10
2022-09-15T04:09:13.800Z,0.80
2022-09-15T04:11:40.925Z,0.68
2022-09-15T04:14:07.597Z,0.70
2022-09-15T04:16:34.290Z,0.63
2022-09-15T04:19:00.973Z,0.70
2022-09-15T04:21:27.810Z,0.60
2022-09-15T04:24:00.245Z,0.80
2022-09-15T04:26:33.191Z,0.47
2022-09-15T04:29:04.328Z,0.60
2022-09-15T04:31:32.233Z,0.73
2022-09-15T04:33:59.446Z,0.77
2022-09-15T04:36:27.473Z,0.68
2022-09-15T04:38:54.255Z,0.70
2022-09-15T04:41:21.011Z,0.55
2022-09-15T04:43:48.054Z,0.70
2022-09-15T04:46:15.225Z,1.00
2022-09-15T04:48:42.510Z,0.90
2022-09-15T04:51:11.928Z,0.82
2022-09-15T04:53:39.108Z,0.63
2022-09-15T04:56:06.811Z,0.80
2022-09-15T04:58:40.344Z,0.68
2022-09-15T05:01:11.344Z,0.70
2022-09-15T05:03:38.451Z,0.70
2022-09-15T05:06:10.056Z,0.60
2022-09-15T05:08:36.885Z,0.70
2022-09-15T05:11:05.193Z,0.70
2022-09-15T05:13:31.876Z,0.90
2022-09-15T05:16:03.664Z,0.90
2022-09-15T05:18:31.023Z,0.50
2022-09-15T05:20:58.832Z,0.88
2022-09-15T05:23:25.492Z,0.70
2022-09-15T05:25:58.849Z,0.77
2022-09-15T05:28:25.940Z,0.70
2022-09-15T05:30:53.580Z,0.80
2022-09-15T05:33:20.951Z,0.85
2022-09-15T05:35:54.321Z,0.80
2022-09-15T05:38:21.382Z,0.70
2022-09-15T05:40:48.195Z,0.63
2022-09-15T05:43:15.296Z,0.75
2022-09-15T05:45:42.692Z,0.75
2022-09-15T05:48:12.509Z,0.60
2022-09-15T05:50:39.420Z,0.80
2022-09-15T05:53:07.552Z,0.80
2022-09-15T05:55:37.980Z,0.90
2022-09-15T05:58:04.647Z,0.73
2022-09-15T06:00:31.333Z,0.80
2022-09-15T06:03:00.614Z,0.70
2022-09-15T06:05:27.414Z,0.80
2022-09-15T06:07:54.605Z,0.70
2022-09-15T06:10:22.816Z,0.80
2022-09-15T06:12:49.526Z,0.52
2022-09-15T06:15:16.178Z,0.90
2022-09-15T06:17:42.775Z,0.80
2022-09-15T06:20:10.010Z,0.88
2022-09-15T06:22:36.696Z,0.75
2022-09-15T06:25:03.635Z,1.05
2022-09-15T06:27:30.238Z,0.90
2022-09-15T06:29:56.899Z,0.75
2022-09-15T06:32:23.540Z,1.10
2022-09-15T06:34:52.887Z,1.60
2022-09-15T06:37:19.479Z,1.10
2022-09-15T06:39:46.226Z,0.93
2022-09-15T06:42:14.044Z,0.90
2022-09-15T06:44:41.551Z,0.85
2022-09-15T06:47:08.150Z,0.98
2022-09-15T06:49:34.724Z,1.00
2022-09-15T06:52:02.560Z,0.90
2022-09-15T06:54:29.164Z,0.73
2022-09-15T06:56:55.815Z,0.73
2022-09-15T06:59:24.603Z,0.80
2022-09-15T07:01:54.728Z,0.80
2022-09-15T07:04:21.895Z,0.90
2022-09-15T07:06:48.826Z,1.05
2022-09-15T07:09:15.435Z,0.73
2022-09-15T07:11:42.046Z,0.70
2022-09-15T07:14:08.643Z,1.65
2022-09-15T07:16:35.359Z,1.00
2022-09-15T07:19:03.762Z,0.82
2022-09-15T07:21:30.648Z,0.80
2022-09-15T07:23:57.623Z,0.80
2022-09-15T07:26:25.810Z,0.90
2022-09-15T07:28:54.771Z,0.80
2022-09-15T07:31:22.719Z,0.90
2022-09-15T07:33:49.434Z,0.98
2022-09-15T07:36:16.211Z,0.88
2022-09-15T07:38:44.718Z,0.90
2022-09-15T07:41:15.947Z,1.30
2022-09-15T07:43:46.930Z,0.60
2022-09-15T07:46:13.662Z,1.17
2022-09-15T07:48:40.346Z,1.15
2022-09-15T07:51:07.058Z,0.98
2022-09-15T07:53:34.028Z,0.98
2022-09-15T07:56:00.578Z,1.02
2022-09-15T07:58:27.320Z,0.88
2022-09-15T08:00:54.007Z,1.15
2022-09-15T08:03:21.069Z,0.85
2022-09-15T08:05:47.689Z,0.93
2022-09-15T08:08:14.300Z,1.00
2022-09-15T08:10:41.487Z,1.00
2022-09-15T08:13:08.583Z,1.02
2022-09-15T08:15:36.779Z,0.93
2022-09-15T08:18:03.782Z,0.95
2022-09-15T08:20:31.509Z,1.00
2022-09-15T08:22:58.233Z,1.08
2022-09-15T08:25:24.887Z,0.82
2022-09-15T08:27:52.463Z,1.20
2022-09-15T08:30:19.024Z,1.20
2022-09-15T08:32:46.604Z,1.08
2022-09-15T08:35:14.852Z,0.70
2022-09-15T08:37:41.523Z,1.00
2022-09-15T08:40:14.335Z,1.00
2022-09-15T08:42:44.847Z,0.93
2022-09-15T08:45:23.838Z,0.90
2022-09-15T08:47:55.901Z,1.13
2022-09-15T08:50:23.055Z,0.98
2022-09-15T08:52:59.338Z,1.27
2022-09-15T08:55:41.620Z,1.05
2022-09-15T08:58:13.921Z,1.33
2022-09-15T09:00:40.945Z,1.13
2022-09-15T09:03:19.718Z,0.90
2022-09-15T09:05:59.506Z,1.10
2022-09-15T09:08:38.332Z,1.05
2022-09-15T09:11:08.546Z,1.35
2022-09-15T09:13:53.306Z,1.20
2022-09-15T09:16:38.500Z,1.05
2022-09-15T09:19:23.697Z,1.00
2022-09-15T09:21:53.677Z,1.27
2022-09-15T09:24:26.191Z,1.40
2022-09-15T09:26:55.354Z,1.30
2022-09-15T09:29:30.002Z,1.88
2022-09-15T09:31:57.122Z,1.23
2022-09-15T09:34:44.289Z,1.33
2022-09-15T09:37:11.923Z,1.35
2022-09-15T09:39:38.675Z,1.08
2022-09-15T09:42:06.347Z,1.30
2022-09-15T09:44:33.567Z,1.80
2022-09-15T09:47:03.949Z,1.15
2022-09-15T09:49:34.451Z,1.08
2022-09-15T09:52:03.387Z,0.82
2022-09-15T09:54:31.540Z,1.15
2022-09-15T09:57:13.399Z,1.10
2022-09-15T09:59:41.241Z,1.00
2022-09-15T10:02:11.039Z,1.25
2022-09-15T10:04:38.678Z,1.20
2022-09-15T10:07:05.694Z,1.08
2022-09-15T10:09:33.474Z,1.10
2022-09-15T10:12:01.535Z,1.00
2022-09-15T10:14:30.080Z,0.95
2022-09-15T10:16:59.796Z,1.13
2022-09-15T10:19:27.908Z,1.25
2022-09-15T10:21:54.858Z,1.00
2022-09-15T10:24:27.643Z,1.05
2022-09-15T10:27:20.806Z,1.08
2022-09-15T10:29:47.536Z,1.15
2022-09-15T10:32:25.676Z,1.10
2022-09-15T10:34:59.435Z,1.20
2022-09-15T10:37:31.494Z,1.02
2022-09-15T10:39:59.977Z,1.30
2022-09-15T10:42:46.107Z,1.10
2022-09-15T10:45:18.821Z,1.35
2022-09-15T10:47:48.413Z,1.00
2022-09-15T10:50:21.068Z,1.25
2022-09-15T10:52:47.624Z,1.17
2022-09-15T10:55:48.448Z,1.10
2022-09-15T10:58:31.814Z,0.88
2022-09-15T11:01:05.936Z,1.10
2022-09-15T11:03:55.260Z,1.20
2022-09-15T11:06:27.899Z,1.02
2022-09-15T11:09:00.934Z,1.00
2022-09-15T11:11:27.570Z,1.10
2022-09-15T11:13:59.964Z,1.10
2022-09-15T11:16:29.402Z,1.00
2022-09-15T11:19:01.920Z,0.90
2022-09-15T11:21:32.633Z,1.10
2022-09-15T11:23:59.230Z,1.17
2022-09-15T11:26:38.053Z,0.90
2022-09-15T11:29:12.750Z,0.90
2022-09-15T11:31:42.560Z,0.70
2022-09-15T11:34:09.523Z,0.90
2022-09-15T11:36:44.578Z,0.93
2022-09-15T11:39:21.092Z,0.80
2022-09-15T11:41:49.713Z,0.63
2022-09-15T11:44:25.207Z,0.70
2022-09-15T11:47:10.094Z,0.65
2022-09-15T11:49:36.701Z,0.60
2022-09-15T11:52:07.145Z,0.73
2022-09-15T11:54:40.236Z,0.60
2022-09-15T11:57:15.694Z,0.60
2022-09-15T11:59:46.474Z,0.70
2022-09-15T12:02:31.957Z,0.70
2022-09-15T12:05:05.088Z,1.52
2022-09-15T12:07:34.443Z,0.90
2022-09-15T12:10:06.139Z,0.80
2022-09-15T12:12:36.219Z,1.02
2022-09-15T12:15:02.863Z,0.80
2022-09-15T12:17:29.388Z,0.90
2022-09-15T12:20:00.319Z,1.10
2022-09-15T12:22:30.656Z,1.10
2022-09-15T12:25:13.144Z,0.90
2022-09-15T12:27:39.831Z,1.08
2022-09-15T12:30:06.745Z,0.60
2022-09-15T12:32:35.038Z,1.00
2022-09-15T12:35:10.148Z,0.80
2022-09-15T12:38:08.999Z,1.20
2022-09-15T12:40:42.120Z,0.90
2022-09-15T12:43:11.745Z,0.90
2022-09-15T12:45:39.877Z,0.80
2022-09-15T12:48:11.368Z,1.35
2022-09-15T12:50:39.331Z,1.00
2022-09-15T12:53:26.291Z,1.10
2022-09-15T12:55:57.299Z,1.13
2022-09-15T12:58:33.250Z,1.02
2022-09-15T13:01:29.081Z,0.90
2022-09-15T13:03:58.882Z,0.90
2022-09-15T13:06:29.187Z,1.55
2022-09-15T13:08:55.847Z,0.85
2022-09-15T13:11:48.805Z,1.02
2022-09-15T13:14:15.362Z,1.00
2022-09-15T13:16:46.183Z,0.77
2022-09-15T13:19:31.158Z,0.98
2022-09-15T13:22:27.224Z,0.93
2022-09-15T13:25:01.609Z,1.00
2022-09-15T13:27:34.685Z,1.10
2022-09-15T13:30:10.060Z,1.00
2022-09-15T13:32:55.456Z,0.95
2022-09-15T13:35:32.962Z,1.23
2022-09-15T13:38:23.983Z,1.00
2022-09-15T13:41:13.664Z,1.02
2022-09-15T13:44:06.081Z,1.10
2022-09-15T13:46:42.195Z,1.10
2022-09-15T13:49:23.617Z,1.45
2022-09-15T13:51:59.864Z,0.85
2022-09-15T13:54:32.933Z,1.05
2022-09-15T13:57:06.183Z,1.30
2022-09-15T13:59:33.683Z,1.10
2022-09-15T14:02:04.433Z,0.80
2022-09-15T14:04:35.082Z,0.98
2022-09-15T14:07:02.698Z,1.42
2022-09-15T14:09:33.200Z,1.10
2022-09-15T14:12:02.650Z,0.73
2022-09-15T14:14:32.330Z,0.90
2022-09-15T14:16:59.162Z,0.80
2022-09-15T14:19:32.990Z,0.90
2022-09-15T14:22:00.786Z,1.02
2022-09-15T14:24:30.001Z,0.80
2022-09-15T14:27:03.121Z,1.10
2022-09-15T14:29:29.865Z,0.98
2022-09-15T14:32:00.064Z,1.00
2022-09-15T14:34:29.105Z,0.80
2022-09-15T14:37:12.695Z,1.25
2022-09-15T14:39:40.417Z,0.88
2022-09-15T14:42:30.454Z,1.10
2022-09-15T14:47:59.707Z,1.55
2022-09-15T14:50:29.085Z,1.08
2022-09-15T14:53:03.006Z,1.17
2022-09-15T14:55:47.067Z,1.20
2022-09-15T14:58:19.913Z,1.20
2022-09-15T15:00:59.083Z,0.75
2022-09-15T15:03:33.946Z,0.98
2022-09-15T15:06:27.730Z,1.10
2022-09-15T15:08:55.567Z,0.90
2022-09-15T15:11:22.621Z,0.77
2022-09-15T15:13:52.052Z,0.90
2022-09-15T15:16:23.778Z,0.75
2022-09-15T15:18:51.923Z,0.98
2022-09-15T15:21:32.604Z,0.85
2022-09-15T15:23:59.272Z,0.93
2022-09-15T15:26:34.402Z,0.85
2022-09-15T15:29:01.262Z,1.00
2022-09-15T15:31:31.713Z,0.70
2022-09-15T15:33:59.691Z,0.70
2022-09-15T15:36:28.505Z,1.10
2022-09-15T15:38:59.737Z,0.82
2022-09-15T15:41:30.770Z,0.85
2022-09-15T15:44:00.491Z,0.70
2022-09-15T15:46:46.054Z,0.75
2022-09-15T15:49:15.361Z,1.10
2022-09-15T15:51:42.341Z,0.80
2022-09-15T15:54:08.982Z,0.75
2022-09-15T15:56:38.175Z,0.90
2022-09-15T15:59:05.964Z,0.70
2022-09-15T16:01:33.233Z,0.60
2022-09-15T16:04:00.007Z,0.60
2022-09-15T16:06:28.989Z,0.70
2022-09-15T16:08:58.183Z,0.70
2022-09-15T16:11:24.871Z,0.70
2022-09-15T16:13:51.955Z,0.60
2022-09-15T16:16:20.029Z,0.70
2022-09-15T16:18:47.164Z,0.50
2022-09-15T16:21:18.317Z,0.57
2022-09-15T16:23:45.693Z,0.80
2022-09-15T16:26:14.777Z,0.98
2022-09-15T16:28:41.723Z,0.70
2022-09-15T16:31:12.717Z,1.15
2022-09-15T16:33:40.254Z,0.70
2022-09-15T16:36:12.214Z,0.80
2022-09-15T16:38:39.364Z,0.77
2022-09-15T16:41:10.605Z,1.00
2022-09-15T16:43:37.355Z,0.80
2022-09-15T16:46:05.792Z,0.80
2022-09-15T16:48:32.507Z,0.60
2022-09-15T16:51:23.005Z,0.80
2022-09-15T16:53:47.611Z,0.90
2022-09-15T16:56:15.200Z,0.80
2022-09-15T16:58:42.184Z,0.80
2022-09-15T17:01:16.445Z,0.80
2022-09-15T17:03:43.398Z,0.80
2022-09-15T17:06:15.724Z,0.90
2022-09-15T17:08:42.669Z,0.93
2022-09-15T17:11:16.256Z,0.77
2022-09-15T17:13:43.462Z,0.70
2022-09-15T17:16:10.471Z,0.60
2022-09-15T17:18:37.161Z,0.60
2022-09-15T17:21:03.982Z,0.55
2022-09-15T17:23:31.696Z,0.63
2022-09-15T17:25:59.696Z,0.60
2022-09-15T17:28:27.540Z,0.60
2022-09-15T17:30:58.835Z,0.63
2022-09-15T17:33:25.678Z,0.60
2022-09-15T17:35:52.710Z,0.73
2022-09-15T17:38:21.640Z,1.05
2022-09-15T17:40:49.543Z,0.60
2022-09-15T17:43:20.633Z,0.60
2022-09-15T17:45:47.944Z,0.70
2022-09-15T17:48:14.665Z,0.73
2022-09-15T17:50:42.041Z,0.90
2022-09-15T17:53:18.519Z,0.80
2022-09-15T17:55:45.263Z,0.90
2022-09-15T17:58:12.291Z,0.90
2022-09-15T18:00:40.019Z,0.77
2022-09-15T18:03:21.008Z,0.80
2022-09-15T18:05:47.798Z,0.85
2022-09-15T18:08:14.407Z,0.80
2022-09-15T18:10:41.019Z,0.98
2022-09-15T18:13:07.659Z,0.90
2022-09-15T18:15:34.766Z,0.80
2022-09-15T18:18:08.657Z,0.70
2022-09-15T18:20:36.697Z,0.80
2022-09-15T18:23:03.325Z,1.02
2022-09-15T18:25:30.894Z,1.13
2022-09-15T18:27:58.311Z,0.82
2022-09-15T18:30:26.434Z,1.00
2022-09-15T18:32:53.070Z,1.05
2022-09-15T18:35:20.412Z,0.80
2022-09-15T18:37:47.903Z,1.02
2022-09-15T18:40:16.158Z,0.93
2022-09-15T18:42:42.950Z,0.88
2022-09-15T18:45:13.295Z,0.88
2022-09-15T18:47:41.114Z,1.20
2022-09-15T18:50:08.594Z,6.78
2022-09-15T18:52:38.955Z,7.22
2022-09-15T18:55:06.067Z,5.10
2022-09-15T18:57:36.665Z,1.80
2022-09-15T19:00:08.764Z,1.80
2022-09-15T19:02:35.543Z,1.70
2022-09-15T19:05:02.357Z,1.83
2022-09-15T19:07:29.157Z,1.17
2022-09-15T19:09:56.828Z,1.25
2022-09-15T19:12:23.902Z,1.00
2022-09-15T19:14:50.977Z,1.13
2022-09-15T19:17:17.758Z,1.50
2022-09-15T19:19:46.348Z,1.30
2022-09-15T19:22:13.270Z,1.50
2022-09-15T19:24:39.994Z,1.30
2022-09-15T19:27:07.691Z,1.90
2022-09-15T19:29:35.045Z,1.75
2022-09-15T19:32:02.904Z,1.55
2022-09-15T19:34:29.648Z,1.70
2022-09-15T19:36:56.381Z,1.33
2022-09-15T19:39:23.027Z,1.20
2022-09-15T19:41:49.880Z,1.60
2022-09-15T19:44:16.654Z,1.45
2022-09-15T19:46:43.627Z,1.80
2022-09-15T19:49:10.341Z,2.00
2022-09-15T19:51:37.574Z,1.77
2022-09-15T19:54:04.573Z,1.38
2022-09-15T19:56:31.443Z,1.45
2022-09-15T19:58:58.720Z,1.30
2022-09-15T20:01:26.679Z,1.60
2022-09-15T20:03:54.699Z,1.50
2022-09-15T20:06:21.775Z,1.40
2022-09-15T20:08:51.493Z,1.30
2022-09-15T20:11:18.652Z,1.38
2022-09-15T20:13:45.839Z,1.83
2022-09-15T20:16:15.577Z,1.27
2022-09-15T20:18:43.045Z,1.65
2022-09-15T20:21:14.765Z,1.30
2022-09-15T20:23:48.630Z,1.40
2022-09-15T20:26:16.295Z,1.52
2022-09-15T20:28:43.820Z,1.25
2022-09-15T20:31:12.051Z,1.33
2022-09-15T20:33:39.685Z,1.60
2022-09-15T20:36:07.873Z,1.50
2022-09-15T20:38:35.598Z,1.20
2022-09-15T20:41:03.097Z,1.80
2022-09-15T20:43:29.847Z,1.80
2022-09-15T20:46:00.651Z,1.67
2022-09-15T20:48:32.918Z,1.67
2022-09-15T20:51:11.084Z,1.48
2022-09-15T20:53:39.368Z,1.50
2022-09-15T20:56:06.190Z,1.90
2022-09-15T20:58:34.252Z,1.83
2022-09-15T21:01:03.909Z,1.58
2022-09-15T21:03:30.794Z,1.60
2022-09-15T21:06:01.390Z,1.77
2022-09-15T21:08:28.720Z,1.40
2022-09-15T21:10:55.655Z,1.50
2022-09-15T21:13:22.900Z,1.73
2022-09-15T21:15:53.856Z,2.08
2022-09-15T21:18:20.867Z,1.67
2022-09-15T21:20:53.694Z,2.58
2022-09-15T21:23:20.366Z,1.90
2022-09-15T21:25:46.954Z,1.85
2022-09-15T21:28:14.384Z,2.40
2022-09-15T21:30:41.428Z,1.95
2022-09-15T21:33:08.285Z,1.88
2022-09-15T21:35:34.878Z,1.95
2022-09-15T21:38:01.498Z,1.60
2022-09-15T21:40:28.208Z,1.63
2022-09-15T21:42:54.949Z,1.63
2022-09-15T21:45:21.558Z,1.80
2022-09-15T21:47:48.163Z,1.90
2022-09-15T21:50:14.791Z,1.75
2022-09-15T21:52:41.392Z,2.15
2022-09-15T21:55:08.168Z,1.52
2022-09-15T21:57:34.859Z,2.10
2022-09-15T22:00:01.592Z,1.75
2022-09-15T22:02:31.220Z,2.13
2022-09-15T22:04:59.717Z,1.88
2022-09-15T22:07:26.393Z,1.95
2022-09-15T22:09:53.409Z,2.55
2022-09-15T22:12:20.358Z,2.60
2022-09-15T22:14:47.146Z,2.22
2022-09-15T22:17:14.026Z,2.20
2022-09-15T22:19:40.837Z,2.00
2022-09-15T22:22:07.945Z,1.75
2022-09-15T22:24:34.586Z,2.05
2022-09-15T22:27:01.235Z,1.83
2022-09-15T22:29:27.824Z,1.90
2022-09-15T22:31:54.480Z,2.75
2022-09-15T22:34:21.227Z,2.63
2022-09-15T22:36:47.861Z,2.63
2022-09-15T22:39:14.576Z,2.15
2022-09-15T22:41:41.264Z,2.30
2022-09-15T22:44:16.402Z,1.88
2022-09-15T22:46:43.046Z,2.55
2022-09-15T22:49:09.696Z,2.13
2022-09-15T22:51:36.577Z,2.10
2022-09-15T22:54:03.419Z,2.08
2022-09-15T22:56:30.536Z,2.30
2022-09-15T22:58:57.429Z,1.98
2022-09-15T23:01:25.926Z,2.20
2022-09-15T23:03:53.535Z,2.45
2022-09-15T23:06:20.946Z,2.13
2022-09-15T23:08:51.576Z,2.72
2022-09-15T23:11:18.528Z,2.78
2022-09-15T23:13:45.165Z,2.30
2022-09-15T23:16:11.934Z,2.40
2022-09-15T23:18:38.618Z,2.30
2022-09-15T23:21:07.434Z,2.10
2022-09-15T23:23:37.761Z,2.13
2022-09-15T23:26:05.137Z,2.22
2022-09-15T23:28:32.203Z,2.40
2022-09-15T23:30:59.344Z,2.30
2022-09-15T23:33:27.481Z,2.28
2022-09-15T23:35:54.128Z,2.45
2022-09-15T23:38:21.024Z,2.30
2022-09-15T23:40:48.601Z,2.38
2022-09-15T23:43:15.649Z,2.00
2022-09-15T23:45:42.980Z,2.10
2022-09-15T23:48:09.626Z,2.42
2022-09-15T23:50:37.047Z,2.20
2022-09-15T23:53:04.182Z,1.70
2022-09-15T23:55:31.156Z,2.10
2022-09-15T23:57:58.042Z,2.42
